createdAt,value
2019-05-14T00:00:53.372Z,6.49
2019-05-14T00:01:52.251Z,6.52
2019-05-14T00:02:52.194Z,6.47
2019-05-14T00:03:52.017Z,6.53
2019-05-14T00:04:52.019Z,6.49
2019-05-14T00:05:51.996Z,6.57
2019-05-14T00:06:52.106Z,6.49
2019-05-14T00:07:52.323Z,6.46
2019-05-14T00:08:52.331Z,6.42
2019-05-14T00:10:52.259Z,6.46
2019-05-14T00:11:51.710Z,6.38
2019-05-14T00:12:51.769Z,6.28
2019-05-14T00:13:52.220Z,6.37
2019-05-14T00:15:52.237Z,6.18
2019-05-14T00:16:51.707Z,6.12
2019-05-14T00:17:52.261Z,6.15
2019-05-14T00:18:51.724Z,6.19
2019-05-14T00:20:05.847Z,6.11
2019-05-14T00:20:51.597Z,6.11
2019-05-14T00:21:51.632Z,6.03
2019-05-14T00:22:52.199Z,5.97
2019-05-14T00:23:51.564Z,6.00
2019-05-14T00:24:52.121Z,6.00
2019-05-14T00:25:52.275Z,5.97
2019-05-14T00:26:51.791Z,6.03
2019-05-14T00:27:51.875Z,6.00
2019-05-14T00:28:51.407Z,5.98
2019-05-14T00:30:52.439Z,6.00
2019-05-14T00:31:51.835Z,6.02
2019-05-14T00:32:52.080Z,5.97
2019-05-14T00:33:51.451Z,6.02
2019-05-14T00:34:56.378Z,5.98
2019-05-14T00:35:51.591Z,5.85
2019-05-14T00:37:52.105Z,5.88
2019-05-14T00:38:51.520Z,5.88
2019-05-14T00:39:52.038Z,5.90
2019-05-14T00:41:51.375Z,5.84
2019-05-14T00:42:53.308Z,5.77
2019-05-14T00:43:51.501Z,5.76
2019-05-14T00:44:57.500Z,5.73
2019-05-14T00:45:51.301Z,5.70
2019-05-14T00:46:51.608Z,5.58
2019-05-14T00:47:52.514Z,5.61
2019-05-14T00:48:51.565Z,5.61
2019-05-14T00:49:51.749Z,5.59
2019-05-14T00:50:51.657Z,5.54
2019-05-14T00:51:51.902Z,5.44
2019-05-14T00:52:51.796Z,5.44
2019-05-14T00:53:51.571Z,5.51
2019-05-14T00:57:52.228Z,5.37
2019-05-14T00:58:52.116Z,5.39
2019-05-14T00:59:52.127Z,5.50
2019-05-14T01:00:52.508Z,5.50
2019-05-14T01:01:51.703Z,5.50
2019-05-14T01:02:51.762Z,5.65
2019-05-14T01:03:52.153Z,5.77
2019-05-14T01:05:52.152Z,5.91
2019-05-14T01:06:51.241Z,5.97
2019-05-14T01:07:51.450Z,5.97
2019-05-14T01:08:51.871Z,5.93
2019-05-14T01:09:52.389Z,5.93
2019-05-14T01:11:51.307Z,5.90
2019-05-14T01:12:52.029Z,5.88
2019-05-14T01:18:51.367Z,5.97
2019-05-14T01:19:51.328Z,5.98
2019-05-14T01:20:51.932Z,5.80
2019-05-14T01:21:51.066Z,5.76
2019-05-14T01:22:51.575Z,5.85
2019-05-14T01:23:51.400Z,5.76
2019-05-14T01:24:52.285Z,5.67
2019-05-14T01:25:51.633Z,5.69
2019-05-14T01:27:51.791Z,5.51
2019-05-14T01:28:51.342Z,5.57
2019-05-14T01:29:51.371Z,5.57
2019-05-14T01:30:51.923Z,5.50
2019-05-14T01:31:51.967Z,5.41
2019-05-14T01:32:51.326Z,5.41
2019-05-14T01:33:51.556Z,5.34
2019-05-14T01:34:51.975Z,5.39
2019-05-14T01:36:49.829Z,5.41
2019-05-14T01:37:52.211Z,5.43
2019-05-14T01:39:51.773Z,5.50
2019-05-14T01:40:52.489Z,5.50
2019-05-14T01:41:51.658Z,5.44
2019-05-14T01:42:52.044Z,5.50
2019-05-14T01:43:51.260Z,5.57
2019-05-14T01:44:51.970Z,5.54
2019-05-14T01:45:49.612Z,5.52
2019-05-14T01:46:51.262Z,5.54
2019-05-14T01:47:51.905Z,5.51
2019-05-14T01:48:49.460Z,5.48
2019-05-14T01:49:51.473Z,5.52
2019-05-14T01:50:51.811Z,5.54
2019-05-14T01:51:51.159Z,5.54
2019-05-14T01:52:51.842Z,5.55
2019-05-14T01:54:51.438Z,5.55
2019-05-14T01:55:51.802Z,5.41
2019-05-14T01:56:51.522Z,5.50
2019-05-14T01:57:51.554Z,5.34
2019-05-14T01:58:49.314Z,5.37
2019-05-14T01:59:51.474Z,5.43
2019-05-14T02:00:49.179Z,5.34
2019-05-14T02:01:51.536Z,5.41
2019-05-14T02:02:49.501Z,5.27
2019-05-14T02:03:51.623Z,5.30
2019-05-14T02:04:51.321Z,5.30
2019-05-14T02:05:49.055Z,5.32
2019-05-14T02:06:51.355Z,5.25
2019-05-14T02:07:49.008Z,5.14
2019-05-14T02:08:51.297Z,5.21
2019-05-14T02:09:51.614Z,5.09
2019-05-14T02:11:48.998Z,5.01
2019-05-14T02:12:51.353Z,5.12
2019-05-14T02:13:49.087Z,5.04
2019-05-14T02:14:51.081Z,5.09
2019-05-14T02:15:48.898Z,5.07
2019-05-14T02:16:51.099Z,5.15
2019-05-14T02:17:48.773Z,5.04
2019-05-14T02:18:48.750Z,5.14
2019-05-14T02:19:48.725Z,4.98
2019-05-14T02:20:48.702Z,4.94
2019-05-14T02:21:51.263Z,4.91
2019-05-14T02:22:48.658Z,4.93
2019-05-14T02:23:51.252Z,4.83
2019-05-14T02:24:48.696Z,4.88
2019-05-14T02:25:48.588Z,4.79
2019-05-14T02:26:48.648Z,4.86
2019-05-14T02:27:48.763Z,4.79
2019-05-14T02:28:48.509Z,4.79
2019-05-14T02:29:48.589Z,4.71
2019-05-14T02:30:57.641Z,4.75
2019-05-14T02:31:50.457Z,4.67
2019-05-14T02:32:49.815Z,4.67
2019-05-14T02:33:50.374Z,4.71
2019-05-14T02:34:50.028Z,4.75
2019-05-14T02:35:49.320Z,4.72
2019-05-14T02:36:49.626Z,4.64
2019-05-14T02:37:50.511Z,4.74
2019-05-14T02:38:49.350Z,4.67
2019-05-14T02:39:50.163Z,4.54
2019-05-14T02:40:49.385Z,4.63
2019-05-14T02:41:49.870Z,4.48
2019-05-14T02:42:49.815Z,4.59
2019-05-14T02:43:50.375Z,4.53
2019-05-14T02:44:48.956Z,4.59
2019-05-14T02:46:02.000Z,4.67
2019-05-14T02:46:50.582Z,4.60
2019-05-14T02:47:50.300Z,4.54
2019-05-14T02:48:49.141Z,4.61
2019-05-14T02:49:50.188Z,4.59
2019-05-14T02:50:49.456Z,4.69
2019-05-14T02:51:50.450Z,4.67
2019-05-14T02:52:49.643Z,4.63
2019-05-14T02:53:49.824Z,4.63
2019-05-14T02:54:49.614Z,4.69
2019-05-14T02:55:49.755Z,4.56
2019-05-14T02:56:49.521Z,4.57
2019-05-14T02:57:50.109Z,4.64
2019-05-14T02:58:49.920Z,4.63
2019-05-14T02:59:50.174Z,4.60
2019-05-14T03:00:49.174Z,4.63
2019-05-14T03:01:50.200Z,4.56
2019-05-14T03:02:49.488Z,4.61
2019-05-14T03:04:49.904Z,4.48
2019-05-14T03:05:49.534Z,4.48
2019-05-14T03:06:49.828Z,4.43
2019-05-14T03:07:50.015Z,4.39
2019-05-14T03:08:49.372Z,4.39
2019-05-14T03:10:50.416Z,4.26
2019-05-14T03:14:49.831Z,4.13
2019-05-14T03:16:49.452Z,4.18
2019-05-14T03:17:49.407Z,4.17
2019-05-14T03:18:50.143Z,4.17
2019-05-14T03:19:49.631Z,4.12
2019-05-14T03:20:50.184Z,4.06
2019-05-14T03:21:50.175Z,4.10
2019-05-14T03:23:49.680Z,3.99
2019-05-14T03:24:49.982Z,4.02
2019-05-14T03:25:49.330Z,4.06
2019-05-14T03:26:49.952Z,4.06
2019-05-14T03:27:49.648Z,4.02
2019-05-14T03:28:49.607Z,3.94
2019-05-14T03:29:49.547Z,4.02
2019-05-14T03:30:52.022Z,3.88
2019-05-14T03:31:52.665Z,3.96
2019-05-14T03:33:52.162Z,4.10
2019-05-14T03:34:52.216Z,4.17
2019-05-14T03:35:52.013Z,4.02
2019-05-14T03:36:52.901Z,4.02
2019-05-14T03:37:49.579Z,4.12
2019-05-14T03:38:49.962Z,4.13
2019-05-14T03:39:49.346Z,4.09
2019-05-14T03:40:49.440Z,4.16
2019-05-14T03:42:49.058Z,4.16
2019-05-14T03:43:49.423Z,4.26
2019-05-14T03:44:49.050Z,4.26
2019-05-14T03:45:49.285Z,4.20
2019-05-14T03:46:54.714Z,4.24
2019-05-14T03:47:50.114Z,4.20
2019-05-14T03:49:49.559Z,4.13
2019-05-14T03:50:49.539Z,4.16
2019-05-14T03:51:49.452Z,4.06
2019-05-14T03:52:49.583Z,4.03
2019-05-14T03:54:00.703Z,4.09
2019-05-14T03:54:49.560Z,4.06
2019-05-14T03:55:49.995Z,3.91
2019-05-14T03:56:49.358Z,3.88
2019-05-14T03:58:49.249Z,3.82
2019-05-14T03:59:49.615Z,3.87
2019-05-14T04:03:46.366Z,3.81
2019-05-14T04:04:50.053Z,3.84
2019-05-14T04:05:49.352Z,3.84
2019-05-14T04:06:49.357Z,3.82
2019-05-14T04:07:49.879Z,3.87
2019-05-14T04:08:49.500Z,3.87
2019-05-14T04:09:49.369Z,3.88
2019-05-14T04:10:53.015Z,3.92
2019-05-14T04:11:46.273Z,3.96
2019-05-14T04:12:48.887Z,4.16
2019-05-14T04:13:49.401Z,4.20
2019-05-14T04:14:46.103Z,4.24
2019-05-14T04:17:01.607Z,4.43
2019-05-14T04:17:49.837Z,4.45
2019-05-14T04:18:45.948Z,4.43
2019-05-14T04:19:49.251Z,4.57
2019-05-14T04:20:49.769Z,4.60
2019-05-14T04:21:48.857Z,4.61
2019-05-14T04:23:45.818Z,4.74
2019-05-14T04:24:49.359Z,4.71
2019-05-14T04:25:45.768Z,4.74
2019-05-14T04:27:49.110Z,4.79
2019-05-14T04:28:45.905Z,4.79
2019-05-14T04:29:45.911Z,4.78
2019-05-14T04:30:49.093Z,4.83
2019-05-14T04:31:45.623Z,4.89
2019-05-14T04:32:45.654Z,4.86
2019-05-14T04:33:45.566Z,4.98
2019-05-14T04:34:45.547Z,4.97
2019-05-14T04:36:45.818Z,5.04
2019-05-14T04:42:45.711Z,4.98
2019-05-14T04:43:45.333Z,4.98
2019-05-14T04:44:45.308Z,5.09
2019-05-14T04:45:45.203Z,5.19
2019-05-14T04:46:45.302Z,5.22
2019-05-14T04:47:45.385Z,5.22
2019-05-14T04:48:45.458Z,5.36
2019-05-14T04:49:45.509Z,5.40
2019-05-14T04:50:45.185Z,5.39
2019-05-14T04:51:45.161Z,5.52
2019-05-14T04:54:45.398Z,5.61
2019-05-14T04:55:45.489Z,5.55
2019-05-14T04:59:44.971Z,5.77
2019-05-14T05:00:45.097Z,5.84
2019-05-14T05:01:44.829Z,5.84
2019-05-14T05:02:44.906Z,5.90
2019-05-14T05:03:45.405Z,6.00
2019-05-14T05:04:44.870Z,6.08
2019-05-14T05:05:44.845Z,6.13
2019-05-14T05:06:44.990Z,6.28
2019-05-14T05:07:44.802Z,6.18
2019-05-14T05:08:44.774Z,6.35
2019-05-14T05:09:45.745Z,6.42
2019-05-14T05:10:45.029Z,6.49
2019-05-14T05:12:44.716Z,6.61
2019-05-14T05:13:44.637Z,6.61
2019-05-14T05:14:44.524Z,6.67
2019-05-14T05:15:44.595Z,6.78
2019-05-14T05:16:44.593Z,6.78
2019-05-14T05:18:44.830Z,6.88
2019-05-14T05:19:45.944Z,7.00
2019-05-14T05:20:44.396Z,7.01
2019-05-14T05:21:44.379Z,7.15
2019-05-14T05:22:44.360Z,7.19
2019-05-14T05:23:44.340Z,7.33
2019-05-14T05:24:44.345Z,7.36
2019-05-14T05:29:00.067Z,7.55
2019-05-14T05:33:44.351Z,7.94
2019-05-14T05:35:49.235Z,8.16
2019-05-14T05:36:44.273Z,8.24
2019-05-14T05:37:44.572Z,8.26
2019-05-14T05:38:44.020Z,8.47
2019-05-14T05:39:43.969Z,8.38
2019-05-14T05:40:43.962Z,8.37
2019-05-14T05:41:44.006Z,8.60
2019-05-14T05:42:44.262Z,8.57
2019-05-14T05:44:44.329Z,8.89
2019-05-14T05:45:43.896Z,8.96
2019-05-14T05:47:57.114Z,9.03
2019-05-14T05:48:43.955Z,9.15
2019-05-14T05:49:44.103Z,9.15
2019-05-14T05:51:43.901Z,9.23
2019-05-14T05:58:43.671Z,9.66
2019-05-14T06:01:46.472Z,9.94
2019-05-14T06:02:43.921Z,9.96
2019-05-14T06:12:43.492Z,10.55
2019-05-14T06:14:43.653Z,10.73
2019-05-14T06:15:48.255Z,10.65
2019-05-14T06:16:43.189Z,10.78
2019-05-14T06:17:43.156Z,10.76
2019-05-14T06:22:43.249Z,10.87
2019-05-14T06:23:44.115Z,10.91
2019-05-14T06:24:43.422Z,10.95
2019-05-14T06:25:43.456Z,10.98
2019-05-14T06:26:43.670Z,11.01
2019-05-14T06:27:43.377Z,11.03
2019-05-14T06:32:42.882Z,11.18
2019-05-14T06:33:44.493Z,11.15
2019-05-14T06:34:42.810Z,11.18
2019-05-14T06:35:43.201Z,11.27
2019-05-14T06:36:42.844Z,11.08
2019-05-14T06:37:45.122Z,11.22
2019-05-14T06:38:42.832Z,11.23
2019-05-14T06:40:42.700Z,11.34
2019-05-14T06:42:43.053Z,11.36
2019-05-14T06:43:42.922Z,11.31
2019-05-14T06:44:42.681Z,11.43
2019-05-14T06:45:43.797Z,11.45
2019-05-14T06:46:43.590Z,11.49
2019-05-14T06:47:44.853Z,11.62
2019-05-14T06:48:43.571Z,11.71
2019-05-14T06:49:44.031Z,11.82
2019-05-14T06:50:42.866Z,11.88
2019-05-14T06:57:43.183Z,12.05
2019-05-14T06:59:42.325Z,11.96
2019-05-14T07:00:42.385Z,12.03
2019-05-14T07:02:44.228Z,12.03
2019-05-14T07:03:42.354Z,12.07
2019-05-14T07:04:42.265Z,12.13
2019-05-14T07:05:42.284Z,12.07
2019-05-14T07:06:42.176Z,12.05
2019-05-14T07:07:44.021Z,12.13
2019-05-14T07:08:42.632Z,12.18
2019-05-14T07:09:42.213Z,12.18
2019-05-14T07:10:42.201Z,12.18
2019-05-14T07:11:42.191Z,12.22
2019-05-14T07:12:42.162Z,12.21
2019-05-14T07:13:42.158Z,12.29
2019-05-14T07:14:42.661Z,12.38
2019-05-14T07:15:42.193Z,12.40
2019-05-14T07:16:42.102Z,12.51
2019-05-14T07:17:42.073Z,12.48
2019-05-14T07:18:48.742Z,12.65
2019-05-14T07:19:41.934Z,12.68
2019-05-14T07:20:42.676Z,12.81
2019-05-14T07:21:41.906Z,12.88
2019-05-14T07:22:41.893Z,13.05
2019-05-14T07:23:41.947Z,13.20
2019-05-14T07:24:41.850Z,13.35
2019-05-14T07:25:41.918Z,13.45
2019-05-14T07:26:42.380Z,13.42
2019-05-14T07:27:41.931Z,13.79
2019-05-14T07:29:41.749Z,14.59
2019-05-14T07:30:41.847Z,14.97
2019-05-14T07:31:41.710Z,15.14
2019-05-14T07:32:42.321Z,15.41
2019-05-14T07:33:41.841Z,15.81
2019-05-14T07:34:41.668Z,16.08
2019-05-14T07:41:42.441Z,17.04
2019-05-14T07:42:41.676Z,17.38
2019-05-14T07:43:41.667Z,17.53
2019-05-14T07:45:41.662Z,17.69
2019-05-14T07:46:41.604Z,17.93
2019-05-14T07:51:41.959Z,18.89
2019-05-14T07:52:45.591Z,19.12
2019-05-14T07:54:41.901Z,18.71
2019-05-14T07:55:41.364Z,18.78
2019-05-14T07:56:41.856Z,18.96
2019-05-14T07:57:41.452Z,18.98
2019-05-14T07:58:41.508Z,18.48
2019-05-14T07:59:41.516Z,18.74
2019-05-14T08:00:41.561Z,18.91
2019-05-14T08:01:41.838Z,18.94
2019-05-14T08:02:41.388Z,19.08
2019-05-14T08:04:41.801Z,19.54
2019-05-14T08:05:41.312Z,19.74
2019-05-14T08:06:41.342Z,19.63
2019-05-14T08:11:41.574Z,19.79
2019-05-14T08:13:42.694Z,20.11
2019-05-14T08:14:55.732Z,19.93
2019-05-14T08:16:41.191Z,19.89
2019-05-14T08:17:41.092Z,20.11
2019-05-14T08:18:41.446Z,20.11
2019-05-14T08:19:41.511Z,19.56
2019-05-14T08:20:41.224Z,18.42
2019-05-14T08:21:41.208Z,18.49
2019-05-14T08:25:41.361Z,20.08
2019-05-14T08:27:41.033Z,20.15
2019-05-14T08:28:40.968Z,20.27
2019-05-14T08:29:41.053Z,20.33
2019-05-14T08:31:41.358Z,20.79
2019-05-14T08:33:40.930Z,21.26
2019-05-14T08:35:40.905Z,21.28
2019-05-14T08:38:45.383Z,21.94
2019-05-14T08:39:40.963Z,21.78
2019-05-14T08:40:40.944Z,21.74
2019-05-14T08:41:40.849Z,21.53
2019-05-14T08:44:41.330Z,21.45
2019-05-14T08:45:40.920Z,21.66
2019-05-14T08:46:40.885Z,21.47
2019-05-14T08:47:40.924Z,21.53
2019-05-14T08:48:40.871Z,21.75
2019-05-14T08:49:46.204Z,21.85
2019-05-14T08:50:40.910Z,21.82
2019-05-14T08:51:40.952Z,21.94
2019-05-14T08:52:41.026Z,21.84
2019-05-14T08:53:40.890Z,22.06
2019-05-14T08:54:41.268Z,22.06
2019-05-14T08:55:41.002Z,21.77
2019-05-14T08:56:41.218Z,21.81
2019-05-14T08:57:41.330Z,21.97
2019-05-14T08:59:41.062Z,22.03
2019-05-14T09:05:41.732Z,22.27
2019-05-14T09:06:40.897Z,21.97
2019-05-14T09:07:40.913Z,22.09
2019-05-14T09:08:40.728Z,22.00
2019-05-14T09:09:40.874Z,22.15
2019-05-14T09:10:41.447Z,22.13
2019-05-14T09:11:44.937Z,21.93
2019-05-14T09:12:40.896Z,22.31
2019-05-14T09:13:40.704Z,22.34
2019-05-14T09:15:41.397Z,22.49
2019-05-14T09:16:46.788Z,22.70
2019-05-14T09:17:41.183Z,22.96
2019-05-14T09:18:41.381Z,22.71
2019-05-14T09:19:57.270Z,22.88
2019-05-14T09:20:42.443Z,23.01
2019-05-14T09:21:42.479Z,23.10
2019-05-14T09:22:40.675Z,22.99
2019-05-14T09:23:40.571Z,23.04
2019-05-14T09:27:40.630Z,23.71
2019-05-14T09:29:42.771Z,23.11
2019-05-14T09:30:40.599Z,22.85
2019-05-14T09:33:41.140Z,20.67
2019-05-14T09:35:40.811Z,19.63
2019-05-14T09:36:40.569Z,19.19
2019-05-14T09:37:40.509Z,20.18
2019-05-14T09:40:41.391Z,21.78
2019-05-14T09:41:41.865Z,22.19
2019-05-14T09:42:40.542Z,22.49
2019-05-14T09:43:40.543Z,22.88
2019-05-14T09:44:40.476Z,22.85
2019-05-14T09:45:40.871Z,22.58
2019-05-14T09:46:40.904Z,22.83
2019-05-14T09:47:40.675Z,23.06
2019-05-14T09:48:40.407Z,23.37
2019-05-14T09:49:40.383Z,23.59
2019-05-14T09:50:41.294Z,23.06
2019-05-14T09:51:40.370Z,23.10
2019-05-14T09:52:40.443Z,22.80
2019-05-14T09:53:41.082Z,22.22
2019-05-14T09:54:43.936Z,22.44
2019-05-14T09:55:40.488Z,22.55
2019-05-14T09:56:41.403Z,22.83
2019-05-14T09:57:40.412Z,23.26
2019-05-14T09:58:40.429Z,23.63
2019-05-14T09:59:40.454Z,23.88
2019-05-14T10:00:40.714Z,23.91
2019-05-14T10:01:40.311Z,24.10
2019-05-14T10:02:40.333Z,24.37
2019-05-14T10:03:40.416Z,24.33
2019-05-14T10:05:40.559Z,24.07
2019-05-14T10:06:40.460Z,23.98
2019-05-14T10:07:40.983Z,23.69
2019-05-14T10:11:41.595Z,22.95
2019-05-14T10:12:51.774Z,23.25
2019-05-14T10:13:41.096Z,23.63
2019-05-14T10:14:40.513Z,23.88
2019-05-14T10:15:40.480Z,24.22
2019-05-14T10:16:40.762Z,23.92
2019-05-14T10:18:40.870Z,22.96
2019-05-14T10:20:45.361Z,21.16
2019-05-14T10:22:40.273Z,20.05
2019-05-14T10:23:40.578Z,19.39
2019-05-14T10:25:42.376Z,18.71
2019-05-14T10:26:40.377Z,18.58
2019-05-14T10:28:43.404Z,18.74
2019-05-14T10:32:42.059Z,19.72
2019-05-14T10:34:40.570Z,18.98
2019-05-14T10:35:40.278Z,18.75
2019-05-14T10:36:40.816Z,18.48
2019-05-14T10:39:40.203Z,17.94
2019-05-14T10:41:40.545Z,17.47
2019-05-14T10:43:40.301Z,18.15
2019-05-14T10:44:40.323Z,19.23
2019-05-14T10:45:40.473Z,20.27
2019-05-14T10:47:41.181Z,21.73
2019-05-14T10:49:40.972Z,22.44
2019-05-14T10:50:55.726Z,22.51
2019-05-14T10:51:41.511Z,21.65
2019-05-14T10:52:40.145Z,21.08
2019-05-14T10:54:54.954Z,22.49
2019-05-14T10:55:40.271Z,23.21
2019-05-14T10:56:40.254Z,23.56
2019-05-14T10:58:40.253Z,24.06
2019-05-14T10:59:40.107Z,24.33
2019-05-14T11:01:40.307Z,24.86
2019-05-14T11:02:40.013Z,24.96
2019-05-14T11:03:40.123Z,24.97
2019-05-14T11:05:41.752Z,24.36
2019-05-14T11:06:40.073Z,23.13
2019-05-14T11:07:41.768Z,22.30
2019-05-14T11:09:40.064Z,21.05
2019-05-14T11:12:40.080Z,22.36
2019-05-14T11:13:40.402Z,22.48
2019-05-14T11:14:40.279Z,23.14
2019-05-14T11:16:41.952Z,22.21
2019-05-14T11:17:40.713Z,21.43
2019-05-14T11:18:40.259Z,21.08
2019-05-14T11:20:43.585Z,20.22
2019-05-14T11:21:43.293Z,20.05
2019-05-14T11:22:44.183Z,19.74
2019-05-14T11:23:40.323Z,19.30
2019-05-14T11:24:41.361Z,18.83
2019-05-14T11:25:42.593Z,18.48
2019-05-14T11:26:39.920Z,18.09
2019-05-14T11:27:39.911Z,17.97
2019-05-14T11:31:39.986Z,21.53
2019-05-14T11:32:40.203Z,22.31
2019-05-14T11:34:40.059Z,21.88
2019-05-14T11:35:40.194Z,21.40
2019-05-14T11:36:40.051Z,21.01
2019-05-14T11:37:41.387Z,20.82
2019-05-14T11:38:40.045Z,20.73
2019-05-14T11:39:40.217Z,20.49
2019-05-14T11:40:39.884Z,20.33
2019-05-14T11:44:39.949Z,20.27
2019-05-14T11:45:40.004Z,19.92
2019-05-14T11:47:40.103Z,20.61
2019-05-14T11:49:40.351Z,22.36
2019-05-14T11:51:59.287Z,23.78
2019-05-14T11:52:39.697Z,24.38
2019-05-14T11:53:39.659Z,24.55
2019-05-14T11:54:41.096Z,24.79
2019-05-14T11:56:41.789Z,25.14
2019-05-14T11:57:39.728Z,25.12
2019-05-14T12:01:39.614Z,25.92
2019-05-14T12:02:39.731Z,24.89
2019-05-14T12:03:40.030Z,24.10
2019-05-14T12:04:39.707Z,23.74
2019-05-14T12:05:39.690Z,24.08
2019-05-14T12:06:39.594Z,24.25
2019-05-14T12:07:39.876Z,23.94
2019-05-14T12:08:41.941Z,22.93
2019-05-14T12:09:39.981Z,22.18
2019-05-14T12:10:39.714Z,21.63
2019-05-14T12:11:39.578Z,21.22
2019-05-14T12:12:40.396Z,20.80
2019-05-14T12:13:39.728Z,20.33
2019-05-14T12:15:41.327Z,19.71
2019-05-14T12:16:41.352Z,19.39
2019-05-14T12:17:39.750Z,18.89
2019-05-14T12:18:41.661Z,18.64
2019-05-14T12:19:43.345Z,18.43
2019-05-14T12:22:39.720Z,20.88
2019-05-14T12:23:39.523Z,21.51
2019-05-14T12:24:39.642Z,22.25
2019-05-14T12:25:39.527Z,22.86
2019-05-14T12:26:39.477Z,23.26
2019-05-14T12:29:40.127Z,24.91
2019-05-14T12:30:39.792Z,25.33
2019-05-14T12:31:39.722Z,25.86
2019-05-14T12:33:40.003Z,25.41
2019-05-14T12:34:39.661Z,24.36
2019-05-14T12:35:40.578Z,24.26
2019-05-14T12:36:39.851Z,23.70
2019-05-14T12:39:39.519Z,21.67
2019-05-14T12:41:39.653Z,20.18
2019-05-14T12:42:39.678Z,20.04
2019-05-14T12:44:40.961Z,19.78
2019-05-14T12:46:44.984Z,18.89
2019-05-14T12:47:39.748Z,18.67
2019-05-14T12:48:39.661Z,19.12
2019-05-14T12:49:40.369Z,20.30
2019-05-14T12:50:39.530Z,21.48
2019-05-14T12:51:42.516Z,22.56
2019-05-14T12:53:40.713Z,23.74
2019-05-14T12:58:45.305Z,20.32
2019-05-14T13:05:39.715Z,18.86
2019-05-14T13:06:40.098Z,20.14
2019-05-14T13:07:41.791Z,21.35
2019-05-14T13:08:39.335Z,22.37
2019-05-14T13:09:39.453Z,23.26
2019-05-14T13:11:41.642Z,23.29
2019-05-14T13:12:39.455Z,23.36
2019-05-14T13:13:42.874Z,23.52
2019-05-14T13:15:39.522Z,23.61
2019-05-14T13:19:40.990Z,24.16
2019-05-14T13:20:39.925Z,23.78
2019-05-14T13:22:45.656Z,23.49
2019-05-14T13:23:39.204Z,23.73
2019-05-14T13:25:39.770Z,22.61
2019-05-14T13:27:39.375Z,22.23
2019-05-14T13:28:40.073Z,21.73
2019-05-14T13:29:39.236Z,21.16
2019-05-14T13:31:39.710Z,21.96
2019-05-14T13:32:39.988Z,22.64
2019-05-14T13:34:39.705Z,23.66
2019-05-14T13:37:39.936Z,25.06
2019-05-14T13:38:39.738Z,25.53
2019-05-14T13:39:39.907Z,25.67
2019-05-14T13:40:40.779Z,25.58
2019-05-14T13:41:41.953Z,25.89
2019-05-14T13:42:40.835Z,25.14
2019-05-14T13:43:40.245Z,25.08
2019-05-14T13:45:39.375Z,24.45
2019-05-14T13:46:48.689Z,24.45
2019-05-14T13:54:40.338Z,25.04
2019-05-14T13:57:39.995Z,25.11
2019-05-14T13:58:39.343Z,24.16
2019-05-14T14:01:39.299Z,22.12
2019-05-14T14:02:38.939Z,22.95
2019-05-14T14:04:39.096Z,22.22
2019-05-14T14:05:39.443Z,21.66
2019-05-14T14:06:39.448Z,21.40
2019-05-14T14:07:40.188Z,21.93
2019-05-14T14:09:39.731Z,22.27
2019-05-14T14:11:39.027Z,23.48
2019-05-14T14:17:39.757Z,21.93
2019-05-14T14:18:39.633Z,21.53
2019-05-14T14:19:39.047Z,20.97
2019-05-14T14:26:39.579Z,21.10
2019-05-14T14:29:39.680Z,22.46
2019-05-14T14:30:39.474Z,22.53
2019-05-14T14:31:41.566Z,22.25
2019-05-14T14:32:40.954Z,22.67
2019-05-14T14:33:39.735Z,23.01
2019-05-14T14:35:38.953Z,23.73
2019-05-14T14:37:39.786Z,24.06
2019-05-14T14:38:40.173Z,24.16
2019-05-14T14:39:38.894Z,23.63
2019-05-14T14:41:40.124Z,21.84
2019-05-14T14:42:39.967Z,21.03
2019-05-14T14:44:39.385Z,19.82
2019-05-14T14:45:44.655Z,19.53
2019-05-14T14:50:39.199Z,21.10
2019-05-14T14:52:40.178Z,22.22
2019-05-14T14:53:52.508Z,22.70
2019-05-14T14:54:38.643Z,22.98
2019-05-14T14:55:39.967Z,23.34
2019-05-14T14:57:45.116Z,23.36
2019-05-14T14:58:45.961Z,22.98
2019-05-14T14:59:39.218Z,22.46
2019-05-14T15:00:38.806Z,22.00
2019-05-14T15:01:40.177Z,21.23
2019-05-14T15:02:41.276Z,20.56
2019-05-14T15:04:39.786Z,19.56
2019-05-14T15:05:39.098Z,18.89
2019-05-14T15:06:39.977Z,18.39
2019-05-14T15:07:40.821Z,17.97
2019-05-14T15:09:40.456Z,17.81
2019-05-14T15:10:39.636Z,17.65
2019-05-14T15:11:39.603Z,17.39
2019-05-14T15:13:39.018Z,18.38
2019-05-14T15:14:39.553Z,19.15
2019-05-14T15:15:39.456Z,19.84
2019-05-14T15:22:38.539Z,22.53
2019-05-14T15:23:42.557Z,22.77
2019-05-14T15:24:38.393Z,23.15
2019-05-14T15:25:39.008Z,23.17
2019-05-14T15:26:38.493Z,22.98
2019-05-14T15:27:38.809Z,22.95
2019-05-14T15:29:39.099Z,22.49
2019-05-14T15:31:38.735Z,22.28
2019-05-14T15:33:38.310Z,21.94
2019-05-14T15:34:38.452Z,21.88
2019-05-14T15:35:38.403Z,21.94
2019-05-14T15:37:42.640Z,21.67
2019-05-14T15:41:39.319Z,22.06
2019-05-14T15:42:39.484Z,22.49
2019-05-14T15:43:39.553Z,22.74
2019-05-14T15:44:48.985Z,22.99
2019-05-14T15:45:38.307Z,23.44
2019-05-14T15:48:39.489Z,22.41
2019-05-14T15:49:38.934Z,21.56
2019-05-14T15:50:38.954Z,21.90
2019-05-14T15:52:39.506Z,20.77
2019-05-14T15:53:38.729Z,20.34
2019-05-14T15:56:39.500Z,18.91
2019-05-14T15:59:39.186Z,18.09
2019-05-14T16:04:38.994Z,17.63
2019-05-14T16:05:39.418Z,18.15
2019-05-14T16:07:40.871Z,19.37
2019-05-14T16:17:47.811Z,20.42
2019-05-14T16:18:38.557Z,20.37
2019-05-14T16:19:39.223Z,20.46
2019-05-14T16:24:53.026Z,21.13
2019-05-14T16:26:38.070Z,21.56
2019-05-14T16:28:39.394Z,21.78
2019-05-14T16:29:45.149Z,21.88
2019-05-14T16:30:39.675Z,21.98
2019-05-14T16:32:39.403Z,21.71
2019-05-14T16:33:40.410Z,21.60
2019-05-14T16:34:40.948Z,21.56
2019-05-14T16:35:39.265Z,21.55
2019-05-14T16:36:41.230Z,21.65
2019-05-14T16:40:39.569Z,21.74
2019-05-14T16:41:38.959Z,21.98
2019-05-14T16:42:39.629Z,21.78
2019-05-14T16:43:40.004Z,21.25
2019-05-14T16:44:39.119Z,20.39
2019-05-14T16:45:39.644Z,19.94
2019-05-14T16:46:38.518Z,19.52
2019-05-14T16:47:39.839Z,19.70
2019-05-14T16:50:37.770Z,19.59
2019-05-14T17:01:38.048Z,19.96
2019-05-14T17:02:37.918Z,19.97
2019-05-14T17:06:38.537Z,19.35
2019-05-14T17:07:38.590Z,19.39
2019-05-14T17:09:38.494Z,19.50
2019-05-14T17:10:38.797Z,19.60
2019-05-14T17:12:49.565Z,19.42
2019-05-14T17:14:38.901Z,18.58
2019-05-14T17:16:37.825Z,17.47
2019-05-14T17:19:38.612Z,16.46
2019-05-14T17:26:38.156Z,16.00
2019-05-14T17:27:39.502Z,16.39
2019-05-14T17:30:38.570Z,17.09
2019-05-14T17:32:39.117Z,16.98
2019-05-14T17:36:38.918Z,17.68
2019-05-14T17:37:39.458Z,17.91
2019-05-14T17:40:39.618Z,17.96
2019-05-14T17:41:41.603Z,17.91
2019-05-14T17:43:39.411Z,17.59
2019-05-14T17:44:38.825Z,17.45
2019-05-14T17:46:39.412Z,17.32
2019-05-14T17:47:38.877Z,17.12
2019-05-14T17:48:39.127Z,17.17
2019-05-14T17:49:39.175Z,17.27
2019-05-14T17:50:38.370Z,17.30
2019-05-14T17:51:39.127Z,17.06
2019-05-14T17:52:45.301Z,17.06
2019-05-14T17:53:38.539Z,16.97
2019-05-14T18:04:37.383Z,16.69
2019-05-14T18:05:36.884Z,16.57
2019-05-14T18:08:36.761Z,16.22
2019-05-14T18:09:36.989Z,16.14
2019-05-14T18:18:37.380Z,14.55
2019-05-14T18:19:37.972Z,14.51
2019-05-14T18:20:39.176Z,14.44
2019-05-14T18:21:38.827Z,14.26
2019-05-14T18:24:39.281Z,13.79
2019-05-14T18:25:38.859Z,13.75
2019-05-14T18:26:38.599Z,13.71
2019-05-14T18:29:38.992Z,13.43
2019-05-14T18:30:38.690Z,13.46
2019-05-14T18:31:43.131Z,13.43
2019-05-14T18:32:36.420Z,13.43
2019-05-14T18:33:39.570Z,13.35
2019-05-14T18:34:38.983Z,13.30
2019-05-14T18:35:44.090Z,13.19
2019-05-14T18:36:39.504Z,13.14
2019-05-14T18:37:38.627Z,13.13
2019-05-14T18:38:38.816Z,13.02
2019-05-14T18:41:38.745Z,12.86
2019-05-14T18:42:38.811Z,12.87
2019-05-14T18:43:36.663Z,12.79
2019-05-14T18:44:38.917Z,12.72
2019-05-14T18:45:38.742Z,12.76
2019-05-14T18:46:39.185Z,12.61
2019-05-14T18:47:39.750Z,12.58
2019-05-14T18:48:36.173Z,12.53
2019-05-14T18:49:36.190Z,12.44
2019-05-14T18:51:36.420Z,12.46
2019-05-14T18:53:38.233Z,12.28
2019-05-14T18:54:38.567Z,12.26
2019-05-14T18:55:38.412Z,12.28
2019-05-14T18:56:38.342Z,12.29
2019-05-14T18:58:38.683Z,12.22
2019-05-14T18:59:38.922Z,12.11
2019-05-14T19:02:35.906Z,12.04
2019-05-14T19:03:39.305Z,11.93
2019-05-14T19:04:38.053Z,11.80
2019-05-14T19:07:39.464Z,11.52
2019-05-14T19:13:38.827Z,11.03
2019-05-14T19:14:38.805Z,10.93
2019-05-14T19:15:36.005Z,10.93
2019-05-14T19:18:35.609Z,10.75
2019-05-14T19:19:35.814Z,10.75
2019-05-14T19:20:35.655Z,10.75
2019-05-14T19:22:35.758Z,10.75
2019-05-14T19:23:38.489Z,10.82
2019-05-14T19:25:35.841Z,10.82
2019-05-14T19:30:37.991Z,10.68